sensor_id;sensor_type;location;lat;lon;timestamp;pressure;altitude;pressure_sealevel;temperature;humidity
66021;BME280;52789;59.980;30.346;2022-07-23T00:00:49;101235.34;;;20.30;79.27
66021;BME280;52789;59.980;30.346;2022-07-23T00:03:15;101242.63;;;20.29;78.96
66021;BME280;52789;59.980;30.346;2022-07-23T00:05:40;101246.16;;;20.30;79.02
66021;BME280;52789;59.980;30.346;2022-07-23T00:08:06;101252.59;;;20.29;78.97
66021;BME280;52789;59.980;30.346;2022-07-23T00:10:33;101246.59;;;20.27;79.11
66021;BME280;52789;59.980;30.346;2022-07-23T00:12:58;101245.97;;;20.25;79.12
66021;BME280;52789;59.980;30.346;2022-07-23T00:15:24;101231.25;;;20.07;79.13
66021;BME280;52789;59.980;30.346;2022-07-23T00:17:50;101249.91;;;20.22;78.95
66021;BME280;52789;59.980;30.346;2022-07-23T00:20:16;101244.50;;;20.22;79.25
66021;BME280;52789;59.980;30.346;2022-07-23T00:22:47;101245.31;;;20.23;79.39
66021;BME280;52789;59.980;30.346;2022-07-23T00:25:12;101245.75;;;20.20;79.40
66021;BME280;52789;59.980;30.346;2022-07-23T00:27:38;101253.25;;;20.18;79.98
66021;BME280;52789;59.980;30.346;2022-07-23T00:30:04;101246.00;;;20.11;80.37
66021;BME280;52789;59.980;30.346;2022-07-23T00:32:30;101243.72;;;20.08;80.06
66021;BME280;52789;59.980;30.346;2022-07-23T00:34:55;101250.19;;;20.07;80.23
66021;BME280;52789;59.980;30.346;2022-07-23T00:37:20;101262.03;;;20.06;80.65
66021;BME280;52789;59.980;30.346;2022-07-23T00:39:47;101235.03;;;19.93;80.63
66021;BME280;52789;59.980;30.346;2022-07-23T00:42:12;101241.47;;;19.92;80.83
66021;BME280;52789;59.980;30.346;2022-07-23T00:44:38;101244.19;;;19.99;81.01
66021;BME280;52789;59.980;30.346;2022-07-23T00:47:28;101245.44;;;19.96;81.09
66021;BME280;52789;59.980;30.346;2022-07-23T00:49:54;101260.63;;;19.97;81.15
66021;BME280;52789;59.980;30.346;2022-07-23T00:52:19;101255.44;;;19.96;81.26
66021;BME280;52789;59.980;30.346;2022-07-23T00:54:45;101255.41;;;19.89;81.38
66021;BME280;52789;59.980;30.346;2022-07-23T00:57:11;101255.03;;;19.86;81.74
66021;BME280;52789;59.980;30.346;2022-07-23T00:59:38;101255.03;;;19.86;81.79
66021;BME280;52789;59.980;30.346;2022-07-23T01:02:04;101254.19;;;19.85;81.96
66021;BME280;52789;59.980;30.346;2022-07-23T01:04:29;101258.78;;;19.85;82.05
66021;BME280;52789;59.980;30.346;2022-07-23T01:06:55;101260.03;;;19.82;82.35
66021;BME280;52789;59.980;30.346;2022-07-23T01:09:21;101258.78;;;19.78;82.38
66021;BME280;52789;59.980;30.346;2022-07-23T01:11:46;101253.38;;;19.78;82.40
66021;BME280;52789;59.980;30.346;2022-07-23T01:14:14;101252.97;;;19.74;82.40
66021;BME280;52789;59.980;30.346;2022-07-23T01:16:41;101254.63;;;19.75;82.37
66021;BME280;52789;59.980;30.346;2022-07-23T01:19:07;101252.75;;;19.76;82.43
66021;BME280;52789;59.980;30.346;2022-07-23T01:21:39;101250.47;;;19.79;82.17
66021;BME280;52789;59.980;30.346;2022-07-23T01:24:06;101251.28;;;19.80;82.28
66021;BME280;52789;59.980;30.346;2022-07-23T01:26:31;101249.22;;;19.75;82.00
66021;BME280;52789;59.980;30.346;2022-07-23T01:28:57;101247.34;;;19.76;82.08
66021;BME280;52789;59.980;30.346;2022-07-23T01:31:22;101241.53;;;19.79;82.17
66021;BME280;52789;59.980;30.346;2022-07-23T01:33:48;101239.88;;;19.78;81.69
66021;BME280;52789;59.980;30.346;2022-07-23T01:36:14;101249.00;;;19.84;81.76
66021;BME280;52789;59.980;30.346;2022-07-23T01:38:43;101236.53;;;19.83;81.59
66021;BME280;52789;59.980;30.346;2022-07-23T01:41:08;101228.81;;;19.86;81.14
66021;BME280;52789;59.980;30.346;2022-07-23T01:43:34;101238.56;;;19.94;81.12
66021;BME280;52789;59.980;30.346;2022-07-23T01:45:59;101237.13;;;19.91;81.02
66021;BME280;52789;59.980;30.346;2022-07-23T01:48:26;101228.81;;;19.86;81.11
66021;BME280;52789;59.980;30.346;2022-07-23T01:50:52;101228.22;;;19.84;80.98
66021;BME280;52789;59.980;30.346;2022-07-23T01:53:17;101232.31;;;19.93;81.13
66021;BME280;52789;59.980;30.346;2022-07-23T01:55:43;101232.53;;;19.98;81.18
66021;BME280;52789;59.980;30.346;2022-07-23T01:58:08;101226.72;;;19.95;80.89
66021;BME280;52789;59.980;30.346;2022-07-23T02:00:34;101241.28;;;20.00;80.78
66021;BME280;52789;59.980;30.346;2022-07-23T02:03:00;101243.53;;;20.03;80.41
66021;BME280;52789;59.980;30.346;2022-07-23T02:05:26;101248.13;;;20.03;80.56
66021;BME280;52789;59.980;30.346;2022-07-23T02:07:54;101238.13;;;20.03;80.91
66021;BME280;52789;59.980;30.346;2022-07-23T02:10:21;101236.88;;;20.06;81.34
66021;BME280;52789;59.980;30.346;2022-07-23T02:12:47;101231.25;;;20.07;81.14
66021;BME280;52789;59.980;30.346;2022-07-23T02:15:12;101183.91;;;19.85;80.78
66021;BME280;52789;59.980;30.346;2022-07-23T02:17:38;101231.44;;;20.13;80.50
66021;BME280;52789;59.980;30.346;2022-07-23T02:20:05;101233.50;;;20.17;80.30
66021;BME280;52789;59.980;30.346;2022-07-23T02:22:32;101220.81;;;20.18;80.15
66021;BME280;52789;59.980;30.346;2022-07-23T02:24:57;101228.69;;;20.26;80.01
66021;BME280;52789;59.980;30.346;2022-07-23T02:27:23;101221.19;;;20.28;79.91
66021;BME280;52789;59.980;30.346;2022-07-23T02:29:49;101221.81;;;20.30;80.30
66021;BME280;52789;59.980;30.346;2022-07-23T02:32:14;101220.31;;;20.34;80.36
66021;BME280;52789;59.980;30.346;2022-07-23T02:34:40;101205.59;;;20.30;80.32
66021;BME280;52789;59.980;30.346;2022-07-23T02:37:06;101216.97;;;20.38;80.14
66021;BME280;52789;59.980;30.346;2022-07-23T02:39:35;101211.56;;;20.38;80.00
66021;BME280;52789;59.980;30.346;2022-07-23T02:42:01;101216.13;;;20.45;79.97
66021;BME280;52789;59.980;30.346;2022-07-23T02:44:27;101199.06;;;20.44;79.74
66021;BME280;52789;59.980;30.346;2022-07-23T02:46:52;101194.06;;;20.48;79.70
66021;BME280;52789;59.980;30.346;2022-07-23T02:49:19;101178.03;;;20.46;79.75
66021;BME280;52789;59.980;30.346;2022-07-23T02:51:44;101184.88;;;20.55;79.63
66021;BME280;52789;59.980;30.346;2022-07-23T02:54:10;101186.91;;;20.60;79.59
66021;BME280;52789;59.980;30.346;2022-07-23T02:56:35;101178.13;;;20.64;79.16
66021;BME280;52789;59.980;30.346;2022-07-23T02:59:01;101179.34;;;20.68;78.95
66021;BME280;52789;59.980;30.346;2022-07-23T03:01:26;101182.41;;;20.79;78.77
66021;BME280;52789;59.980;30.346;2022-07-23T03:03:52;101174.25;;;20.85;78.25
66021;BME280;52789;59.980;30.346;2022-07-23T03:06:17;101162.16;;;20.88;77.72
66021;BME280;52789;59.980;30.346;2022-07-23T03:08:43;101175.97;;;21.29;76.81
66021;BME280;52789;59.980;30.346;2022-07-23T03:11:08;101177.13;;;22.43;73.19
66021;BME280;52789;59.980;30.346;2022-07-23T03:13:37;101175.63;;;23.83;68.13
66021;BME280;52789;59.980;30.346;2022-07-23T03:16:03;101169.16;;;24.86;64.12
66021;BME280;52789;59.980;30.346;2022-07-23T03:18:29;101165.13;;;25.60;62.50
66021;BME280;52789;59.980;30.346;2022-07-23T03:20:54;101165.06;;;26.21;60.68
66021;BME280;52789;59.980;30.346;2022-07-23T03:23:20;101159.91;;;26.78;58.73
66021;BME280;52789;59.980;30.346;2022-07-23T03:25:45;101153.75;;;27.25;56.60
66021;BME280;52789;59.980;30.346;2022-07-23T03:28:17;101163.31;;;27.70;55.58
66021;BME280;52789;59.980;30.346;2022-07-23T03:30:46;101162.31;;;28.01;53.67
66021;BME280;52789;59.980;30.346;2022-07-23T03:33:16;101159.09;;;28.15;52.94
66021;BME280;52789;59.980;30.346;2022-07-23T03:35:43;101155.81;;;28.13;52.06
66021;BME280;52789;59.980;30.346;2022-07-23T03:38:35;101152.63;;;27.21;54.92
66021;BME280;52789;59.980;30.346;2022-07-23T03:41:01;101159.03;;;26.41;57.89
66021;BME280;52789;59.980;30.346;2022-07-23T03:43:26;101110.41;;;25.67;58.63
66021;BME280;52789;59.980;30.346;2022-07-23T03:45:52;101147.78;;;25.28;61.18
66021;BME280;52789;59.980;30.346;2022-07-23T03:48:17;101143.41;;;24.93;62.57
66021;BME280;52789;59.980;30.346;2022-07-23T03:50:43;101145.31;;;24.59;64.44
66021;BME280;52789;59.980;30.346;2022-07-23T03:53:08;101136.53;;;24.40;64.33
66021;BME280;52789;59.980;30.346;2022-07-23T03:55:34;101136.94;;;24.21;64.91
66021;BME280;52789;59.980;30.346;2022-07-23T03:57:59;101128.34;;;24.12;65.08
66021;BME280;52789;59.980;30.346;2022-07-23T04:00:25;101122.59;;;24.25;64.60
66021;BME280;52789;59.980;30.346;2022-07-23T04:02:50;101107.59;;;25.01;61.94
66021;BME280;52789;59.980;30.346;2022-07-23T04:05:16;101126.69;;;26.60;57.75
66021;BME280;52789;59.980;30.346;2022-07-23T04:07:41;101125.88;;;27.86;53.50
66021;BME280;52789;59.980;30.346;2022-07-23T04:10:07;101134.00;;;28.79;51.03
66021;BME280;52789;59.980;30.346;2022-07-23T04:12:33;101134.75;;;29.45;47.96
66021;BME280;52789;59.980;30.346;2022-07-23T04:14:58;101114.94;;;29.64;45.68
66021;BME280;52789;59.980;30.346;2022-07-23T04:17:24;101137.66;;;29.79;45.65
66021;BME280;52789;59.980;30.346;2022-07-23T04:19:50;101123.25;;;29.98;45.26
66021;BME280;52789;59.980;30.346;2022-07-23T04:22:16;101117.34;;;30.25;44.44
66021;BME280;52789;59.980;30.346;2022-07-23T04:24:41;101111.72;;;30.45;44.21
66021;BME280;52789;59.980;30.346;2022-07-23T04:27:07;101113.50;;;30.60;44.01
66021;BME280;52789;59.980;30.346;2022-07-23T04:29:32;101115.72;;;30.58;43.73
66021;BME280;52789;59.980;30.346;2022-07-23T04:31:58;101102.16;;;30.37;43.79
66021;BME280;52789;59.980;30.346;2022-07-23T04:34:23;101097.69;;;30.46;43.94
66021;BME280;52789;59.980;30.346;2022-07-23T04:36:51;101083.22;;;30.70;43.13
66021;BME280;52789;59.980;30.346;2022-07-23T04:39:17;101061.88;;;30.57;42.97
66021;BME280;52789;59.980;30.346;2022-07-23T04:41:42;101086.88;;;30.60;43.23
66021;BME280;52789;59.980;30.346;2022-07-23T04:44:08;101090.78;;;30.49;43.24
66021;BME280;52789;59.980;30.346;2022-07-23T04:46:33;101098.16;;;30.53;43.58
66021;BME280;52789;59.980;30.346;2022-07-23T04:48:59;101085.47;;;30.63;43.25
66021;BME280;52789;59.980;30.346;2022-07-23T04:51:24;101078.69;;;30.84;42.58
66021;BME280;52789;59.980;30.346;2022-07-23T04:53:50;101073.84;;;31.00;42.74
66021;BME280;52789;59.980;30.346;2022-07-23T04:56:15;101065.84;;;31.03;42.57
66021;BME280;52789;59.980;30.346;2022-07-23T04:58:41;101071.75;;;31.16;42.09
66021;BME280;52789;59.980;30.346;2022-07-23T05:01:07;101073.09;;;31.23;42.18
66021;BME280;52789;59.980;30.346;2022-07-23T05:03:32;101070.69;;;31.11;42.03
66021;BME280;52789;59.980;30.346;2022-07-23T05:05:58;101035.72;;;30.88;42.29
66021;BME280;52789;59.980;30.346;2022-07-23T05:08:23;101051.56;;;31.01;42.20
66021;BME280;52789;59.980;30.346;2022-07-23T05:10:49;101046.97;;;30.68;42.62
66021;BME280;52789;59.980;30.346;2022-07-23T05:13:15;101051.66;;;30.28;43.52
66021;BME280;52789;59.980;30.346;2022-07-23T05:15:42;101055.44;;;29.98;44.25
66021;BME280;52789;59.980;30.346;2022-07-23T05:18:07;101049.09;;;29.58;45.26
66021;BME280;52789;59.980;30.346;2022-07-23T05:20:33;101038.50;;;29.26;46.34
66021;BME280;52789;59.980;30.346;2022-07-23T05:22:59;101036.41;;;28.83;46.93
66021;BME280;52789;59.980;30.346;2022-07-23T05:25:24;101044.31;;;27.83;49.47
66021;BME280;52789;59.980;30.346;2022-07-23T05:27:50;101035.88;;;26.79;52.86
66021;BME280;52789;59.980;30.346;2022-07-23T05:30:16;101038.09;;;26.18;55.39
66021;BME280;52789;59.980;30.346;2022-07-23T05:32:41;101038.28;;;25.80;56.29
66021;BME280;52789;59.980;30.346;2022-07-23T05:35:07;101037.00;;;25.66;57.33
66021;BME280;52789;59.980;30.346;2022-07-23T05:37:33;101040.00;;;25.42;58.10
66021;BME280;52789;59.980;30.346;2022-07-23T05:40:24;101031.69;;;25.32;58.68
66021;BME280;52789;59.980;30.346;2022-07-23T05:42:49;101023.97;;;25.24;59.49
66021;BME280;52789;59.980;30.346;2022-07-23T05:45:15;101027.13;;;25.16;59.35
66021;BME280;52789;59.980;30.346;2022-07-23T05:47:45;101026.47;;;25.09;60.04
66021;BME280;52789;59.980;30.346;2022-07-23T05:50:12;101016.03;;;25.00;60.55
66021;BME280;52789;59.980;30.346;2022-07-23T05:52:38;101009.34;;;24.91;60.43
66021;BME280;52789;59.980;30.346;2022-07-23T05:55:05;101015.94;;;24.95;61.13
66021;BME280;52789;59.980;30.346;2022-07-23T05:57:31;100998.59;;;25.01;61.36
66021;BME280;52789;59.980;30.346;2022-07-23T05:59:56;101008.78;;;25.11;61.57
66021;BME280;52789;59.980;30.346;2022-07-23T06:02:21;101005.41;;;25.21;62.07
66021;BME280;52789;59.980;30.346;2022-07-23T06:04:47;100998.09;;;25.26;60.83
66021;BME280;52789;59.980;30.346;2022-07-23T06:07:13;101003.28;;;25.28;60.51
66021;BME280;52789;59.980;30.346;2022-07-23T06:09:38;100995.88;;;25.23;60.68
66021;BME280;52789;59.980;30.346;2022-07-23T06:12:07;100993.72;;;25.25;61.18
66021;BME280;52789;59.980;30.346;2022-07-23T06:14:33;100997.84;;;25.28;61.49
66021;BME280;52789;59.980;30.346;2022-07-23T06:17:00;101003.56;;;25.26;60.49
66021;BME280;52789;59.980;30.346;2022-07-23T06:19:26;101004.13;;;25.28;61.10
66021;BME280;52789;59.980;30.346;2022-07-23T06:21:52;100991.63;;;25.32;61.20
66021;BME280;52789;59.980;30.346;2022-07-23T06:24:17;100981.53;;;25.33;60.55
66021;BME280;52789;59.980;30.346;2022-07-23T06:26:43;100988.19;;;25.42;60.27
66021;BME280;52789;59.980;30.346;2022-07-23T06:29:09;100981.41;;;25.45;60.94
66021;BME280;52789;59.980;30.346;2022-07-23T06:31:34;100966.44;;;25.47;61.10
66021;BME280;52789;59.980;30.346;2022-07-23T06:33:59;100971.75;;;25.59;60.12
66021;BME280;52789;59.980;30.346;2022-07-23T06:36:26;100979.66;;;25.60;60.14
66021;BME280;52789;59.980;30.346;2022-07-23T06:38:55;100976.13;;;25.60;59.49
66021;BME280;52789;59.980;30.346;2022-07-23T06:41:21;100981.31;;;25.61;59.94
66021;BME280;52789;59.980;30.346;2022-07-23T06:43:48;100971.53;;;25.66;60.29
66021;BME280;52789;59.980;30.346;2022-07-23T06:46:14;100968.88;;;25.71;60.65
66021;BME280;52789;59.980;30.346;2022-07-23T06:48:39;100966.72;;;25.73;60.21
66021;BME280;52789;59.980;30.346;2022-07-23T06:51:05;100970.91;;;25.80;58.79
66021;BME280;52789;59.980;30.346;2022-07-23T06:53:30;100967.66;;;25.83;58.42
66021;BME280;52789;59.980;30.346;2022-07-23T06:55:56;100959.22;;;25.85;57.51
66021;BME280;52789;59.980;30.346;2022-07-23T06:58:22;100911.22;;;25.62;57.75
66021;BME280;52789;59.980;30.346;2022-07-23T07:00:47;100951.41;;;25.99;56.83
66021;BME280;52789;59.980;30.346;2022-07-23T07:03:13;100946.75;;;25.99;57.37
66021;BME280;52789;59.980;30.346;2022-07-23T07:05:38;100953.41;;;26.08;56.90
66021;BME280;52789;59.980;30.346;2022-07-23T07:08:07;100949.03;;;26.07;57.01
66021;BME280;52789;59.980;30.346;2022-07-23T07:10:32;100944.69;;;26.11;56.94
66021;BME280;52789;59.980;30.346;2022-07-23T07:13:00;100953.19;;;26.15;56.52
66021;BME280;52789;59.980;30.346;2022-07-23T07:15:26;100949.09;;;26.17;56.21
66021;BME280;52789;59.980;30.346;2022-07-23T07:17:51;100941.47;;;26.19;56.35
66021;BME280;52789;59.980;30.346;2022-07-23T07:20:17;100946.66;;;26.21;55.35
66021;BME280;52789;59.980;30.346;2022-07-23T07:22:42;100939.03;;;26.23;54.94
66021;BME280;52789;59.980;30.346;2022-07-23T07:25:11;100948.63;;;26.25;55.81
66021;BME280;52789;59.980;30.346;2022-07-23T07:27:36;100951.38;;;26.31;55.13
66021;BME280;52789;59.980;30.346;2022-07-23T07:30:03;100938.63;;;26.36;55.01
66021;BME280;52789;59.980;30.346;2022-07-23T07:32:29;100945.50;;;26.44;55.10
66021;BME280;52789;59.980;30.346;2022-07-23T07:34:57;100948.56;;;26.58;55.00
66021;BME280;52789;59.980;30.346;2022-07-23T07:37:24;100952.00;;;26.80;52.09
66021;BME280;52789;59.980;30.346;2022-07-23T07:39:49;100949.63;;;26.94;51.49
66021;BME280;52789;59.980;30.346;2022-07-23T07:42:15;100938.72;;;26.99;51.35
66021;BME280;52789;59.980;30.346;2022-07-23T07:44:40;100939.78;;;26.98;51.99
66021;BME280;52789;59.980;30.346;2022-07-23T07:47:06;100934.78;;;26.84;51.83
66021;BME280;52789;59.980;30.346;2022-07-23T07:49:34;100940.81;;;26.86;52.06
66021;BME280;52789;59.980;30.346;2022-07-23T07:52:00;100945.72;;;26.84;52.50
66021;BME280;52789;59.980;30.346;2022-07-23T07:54:26;100946.25;;;26.81;52.85
66021;BME280;52789;59.980;30.346;2022-07-23T07:56:52;100925.44;;;26.70;52.89
66021;BME280;52789;59.980;30.346;2022-07-23T07:59:17;100930.94;;;26.75;53.43
66021;BME280;52789;59.980;30.346;2022-07-23T08:01:43;100928.75;;;26.77;53.54
66021;BME280;52789;59.980;30.346;2022-07-23T08:04:08;100931.78;;;26.86;53.99
66021;BME280;52789;59.980;30.346;2022-07-23T08:06:34;100945.50;;;26.91;52.74
66021;BME280;52789;59.980;30.346;2022-07-23T08:09:02;100943.31;;;26.93;52.91
66021;BME280;52789;59.980;30.346;2022-07-23T08:11:30;100944.19;;;26.99;53.09
66021;BME280;52789;59.980;30.346;2022-07-23T08:13:55;100953.50;;;27.03;52.94
66021;BME280;52789;59.980;30.346;2022-07-23T08:16:23;100953.50;;;27.03;53.24
66021;BME280;52789;59.980;30.346;2022-07-23T08:18:57;100918.09;;;26.81;53.25
66021;BME280;52789;59.980;30.346;2022-07-23T08:21:30;100939.78;;;26.98;53.57
66021;BME280;52789;59.980;30.346;2022-07-23T08:23:56;100940.38;;;27.05;53.42
66021;BME280;52789;59.980;30.346;2022-07-23T08:26:21;100942.03;;;27.06;53.81
66021;BME280;52789;59.980;30.346;2022-07-23T08:28:47;100940.94;;;27.12;53.92
66021;BME280;52789;59.980;30.346;2022-07-23T08:31:12;100936.06;;;27.19;53.26
66021;BME280;52789;59.980;30.346;2022-07-23T08:33:38;100929.78;;;27.24;53.08
66021;BME280;52789;59.980;30.346;2022-07-23T08:36:04;100930.06;;;27.27;53.02
66021;BME280;52789;59.980;30.346;2022-07-23T08:38:32;100928.41;;;27.21;53.21
66021;BME280;52789;59.980;30.346;2022-07-23T08:41:02;100932.25;;;27.20;54.02
66021;BME280;52789;59.980;30.346;2022-07-23T08:43:32;100925.13;;;27.19;53.39
66021;BME280;52789;59.980;30.346;2022-07-23T08:45:59;100918.81;;;27.13;53.81
66021;BME280;52789;59.980;30.346;2022-07-23T08:48:28;100929.50;;;27.20;53.77
66021;BME280;52789;59.980;30.346;2022-07-23T08:50:57;100921.31;;;27.20;53.73
66021;BME280;52789;59.980;30.346;2022-07-23T08:53:24;100898.03;;;27.12;53.94
66021;BME280;52789;59.980;30.346;2022-07-23T08:56:01;100891.47;;;27.13;53.65
66021;BME280;52789;59.980;30.346;2022-07-23T08:58:27;100889.06;;;27.22;54.03
66021;BME280;52789;59.980;30.346;2022-07-23T09:00:54;100918.06;;;27.43;53.58
66021;BME280;52789;59.980;30.346;2022-07-23T09:03:21;100921.38;;;27.51;53.02
66021;BME280;52789;59.980;30.346;2022-07-23T09:05:50;100928.50;;;27.57;52.85
66021;BME280;52789;59.980;30.346;2022-07-23T09:08:18;100936.72;;;27.62;53.00
66021;BME280;52789;59.980;30.346;2022-07-23T09:10:58;100911.84;;;27.68;52.37
66021;BME280;52789;59.980;30.346;2022-07-23T09:15:52;100919.78;;;27.95;51.97
66021;BME280;52789;59.980;30.346;2022-07-23T09:18:17;100912.66;;;27.89;51.82
66021;BME280;52789;59.980;30.346;2022-07-23T09:20:44;100924.19;;;27.76;52.63
66021;BME280;52789;59.980;30.346;2022-07-23T09:23:09;100918.69;;;27.66;51.77
66021;BME280;52789;59.980;30.346;2022-07-23T09:25:35;100909.38;;;27.62;51.75
66021;BME280;52789;59.980;30.346;2022-07-23T09:28:01;100917.59;;;27.72;51.22
66021;BME280;52789;59.980;30.346;2022-07-23T09:30:31;100908.84;;;27.80;50.80
66021;BME280;52789;59.980;30.346;2022-07-23T09:33:05;100912.41;;;27.86;51.59
66021;BME280;52789;59.980;30.346;2022-07-23T09:35:50;100899.81;;;27.90;51.81
66021;BME280;52789;59.980;30.346;2022-07-23T09:38:18;100907.75;;;27.86;50.95
66021;BME280;52789;59.980;30.346;2022-07-23T09:40:44;100908.03;;;27.80;51.47
66021;BME280;52789;59.980;30.346;2022-07-23T09:43:11;100902.56;;;27.80;51.27
66021;BME280;52789;59.980;30.346;2022-07-23T09:45:37;100903.66;;;27.84;50.23
66021;BME280;52789;59.980;30.346;2022-07-23T09:48:11;100904.72;;;27.67;50.68
66021;BME280;52789;59.980;30.346;2022-07-23T09:50:38;100904.41;;;27.54;51.49
66021;BME280;52789;59.980;30.346;2022-07-23T09:53:04;100900.31;;;27.51;51.39
66021;BME280;52789;59.980;30.346;2022-07-23T09:55:34;100890.75;;;27.49;51.07
66021;BME280;52789;59.980;30.346;2022-07-23T09:58:08;100893.78;;;27.67;50.39
66021;BME280;52789;59.980;30.346;2022-07-23T10:00:37;100888.59;;;27.81;49.76
66021;BME280;52789;59.980;30.346;2022-07-23T10:03:05;100879.28;;;27.82;49.81
66021;BME280;52789;59.980;30.346;2022-07-23T10:05:32;100868.88;;;27.84;49.27
66021;BME280;52789;59.980;30.346;2022-07-23T10:08:01;100876.00;;;27.90;49.14
66021;BME280;52789;59.980;30.346;2022-07-23T10:10:27;100881.44;;;28.00;49.23
66021;BME280;52789;59.980;30.346;2022-07-23T10:12:55;100877.63;;;28.12;48.93
66021;BME280;52789;59.980;30.346;2022-07-23T10:15:40;100855.72;;;28.06;48.21
66021;BME280;52789;59.980;30.346;2022-07-23T10:18:07;100873.50;;;28.19;49.55
66021;BME280;52789;59.980;30.346;2022-07-23T10:20:35;100865.84;;;28.11;49.07
66021;BME280;52789;59.980;30.346;2022-07-23T10:23:19;100870.50;;;28.11;48.94
66021;BME280;52789;59.980;30.346;2022-07-23T10:26:16;100873.50;;;28.19;48.63
66021;BME280;52789;59.980;30.346;2022-07-23T10:31:51;100861.72;;;28.29;47.98
66021;BME280;52789;59.980;30.346;2022-07-23T10:37:16;100867.16;;;28.44;47.66
66021;BME280;52789;59.980;30.346;2022-07-23T10:40:16;100861.72;;;28.29;47.52
66021;BME280;52789;59.980;30.346;2022-07-23T10:42:46;100869.38;;;28.17;47.61
66021;BME280;52789;59.980;30.346;2022-07-23T10:45:36;100868.81;;;28.30;48.03
66021;BME280;52789;59.980;30.346;2022-07-23T10:48:14;100860.59;;;28.45;47.42
66021;BME280;52789;59.980;30.346;2022-07-23T10:50:41;100869.84;;;28.59;46.78
66021;BME280;52789;59.980;30.346;2022-07-23T10:58:04;100868.16;;;28.74;46.45
66021;BME280;52789;59.980;30.346;2022-07-23T11:00:31;100877.13;;;28.89;46.23
66021;BME280;52789;59.980;30.346;2022-07-23T11:03:05;100875.25;;;28.85;46.03
66021;BME280;52789;59.980;30.346;2022-07-23T11:05:50;100867.03;;;28.75;46.05
66021;BME280;52789;59.980;30.346;2022-07-23T11:08:19;100878.06;;;28.54;46.07
66021;BME280;52789;59.980;30.346;2022-07-23T11:10:54;100877.03;;;28.40;46.04
66021;BME280;52789;59.980;30.346;2022-07-23T11:13:28;100885.81;;;28.22;46.82
66021;BME280;52789;59.980;30.346;2022-07-23T11:32:03;100936.25;;;25.81;57.79
66021;BME280;52789;59.980;30.346;2022-07-23T11:37:03;100929.75;;;25.60;59.49
66021;BME280;52789;59.980;30.346;2022-07-23T11:39:48;100908.75;;;25.60;59.95
66021;BME280;52789;59.980;30.346;2022-07-23T11:42:17;100910.09;;;25.58;60.35
66021;BME280;52789;59.980;30.346;2022-07-23T11:44:46;100918.31;;;25.63;60.37
66021;BME280;52789;59.980;30.346;2022-07-23T11:47:12;100918.53;;;25.56;61.48
66021;BME280;52789;59.980;30.346;2022-07-23T11:49:43;100911.34;;;25.45;62.94
66021;BME280;52789;59.980;30.346;2022-07-23T11:52:17;100911.84;;;25.42;63.41
66021;BME280;52789;59.980;30.346;2022-07-23T11:57:13;100913.56;;;25.21;64.99
66021;BME280;52789;59.980;30.346;2022-07-23T11:59:39;100906.56;;;25.09;65.39
66021;BME280;52789;59.980;30.346;2022-07-23T12:02:30;100925.28;;;25.00;66.49
66021;BME280;52789;59.980;30.346;2022-07-23T12:04:56;100928.84;;;24.84;67.20
66021;BME280;52789;59.980;30.346;2022-07-23T12:07:35;100944.94;;;24.85;67.71
66021;BME280;52789;59.980;30.346;2022-07-23T12:12:39;100941.72;;;24.50;68.02
66021;BME280;52789;59.980;30.346;2022-07-23T12:15:06;100942.63;;;24.22;69.43
66021;BME280;52789;59.980;30.346;2022-07-23T12:17:34;100949.44;;;24.02;70.99
66021;BME280;52789;59.980;30.346;2022-07-23T12:20:01;100963.41;;;23.77;73.79
66021;BME280;52789;59.980;30.346;2022-07-23T12:22:43;100984.03;;;23.62;76.38
66021;BME280;52789;59.980;30.346;2022-07-23T12:25:18;100965.63;;;23.24;76.78
66021;BME280;52789;59.980;30.346;2022-07-23T12:27:45;100958.94;;;22.79;77.22
66021;BME280;52789;59.980;30.346;2022-07-23T12:30:29;100918.03;;;22.34;82.51
66021;BME280;52789;59.980;30.346;2022-07-23T12:32:57;100916.19;;;21.93;85.83
66021;BME280;52789;59.980;30.346;2022-07-23T12:35:29;100901.56;;;21.71;86.47
66021;BME280;52789;59.980;30.346;2022-07-23T12:38:01;100906.16;;;21.70;86.24
66021;BME280;52789;59.980;30.346;2022-07-23T12:40:33;100903.22;;;21.72;86.49
66021;BME280;52789;59.980;30.346;2022-07-23T12:43:06;100898.75;;;21.77;86.66
66021;BME280;52789;59.980;30.346;2022-07-23T12:48:21;100876.69;;;21.85;85.53
66021;BME280;52789;59.980;30.346;2022-07-23T12:50:58;100881.44;;;22.02;87.27
66021;BME280;52789;59.980;30.346;2022-07-23T12:53:27;100887.03;;;22.07;83.62
66021;BME280;52789;59.980;30.346;2022-07-23T12:56:04;100894.22;;;22.13;84.78
66021;BME280;52789;59.980;30.346;2022-07-23T13:01:23;100903.88;;;22.32;84.56
66021;BME280;52789;59.980;30.346;2022-07-23T13:06:42;100904.69;;;22.56;84.00
66021;BME280;52789;59.980;30.346;2022-07-23T13:09:10;100902.22;;;22.43;84.71
66021;BME280;52789;59.980;30.346;2022-07-23T13:11:38;100914.47;;;22.45;85.49
66021;BME280;52789;59.980;30.346;2022-07-23T13:14:04;100895.16;;;22.30;86.40
66021;BME280;52789;59.980;30.346;2022-07-23T13:16:30;100916.38;;;22.45;84.82
66021;BME280;52789;59.980;30.346;2022-07-23T13:18:57;100901.63;;;22.41;84.65
66021;BME280;52789;59.980;30.346;2022-07-23T13:21:23;100912.22;;;22.54;84.94
66021;BME280;52789;59.980;30.346;2022-07-23T13:23:49;100913.28;;;22.53;85.99
66021;BME280;52789;59.980;30.346;2022-07-23T13:26:15;100908.69;;;22.53;86.93
66021;BME280;52789;59.980;30.346;2022-07-23T13:28:40;100917.56;;;22.61;85.88